Eakin, South Dakota
Current Conditions -  °F | °C
As of 5:53 PM on Sunday 25 Jan 2015 (Local Time) from KPIR Reporting Station
Scattered Clouds Scattered Clouds  
Wind Chill: 33°   Ceiling: Unl
Heat Index: 37°   Visibility: 10mi
Dew Point: 28°   Wind: 5mph
Humidity: 70%   Direction: 170°S
Pressure: 29.97"   Gusts: NA
Location:  44.3693°N, 100.04°W
Report Text: KPIR 252353Z AUTO 17004KT 10SM SCT100 03/M02 A2997 RMK AO2 SLP163 T00281022 10061 20022 55012
Loading
Personal Weather Stations






























Interactive Weather Map New forecast layout! Learn more

10-Day Weather Forecast

Advertisements
Track Severe Weather on mobile